createdAt,value
2022-12-15T00:00:03.782Z,17.63
2022-12-15T00:02:50.216Z,17.30
2022-12-15T00:05:37.428Z,18.27
2022-12-15T00:08:27.135Z,17.42
2022-12-15T00:11:12.762Z,18.27
2022-12-15T00:13:58.242Z,17.40
2022-12-15T00:16:43.819Z,18.25
2022-12-15T00:19:29.556Z,18.13
2022-12-15T00:22:16.176Z,17.25
2022-12-15T00:25:01.821Z,17.83
2022-12-15T00:27:47.346Z,18.20
2022-12-15T00:30:32.694Z,17.07
2022-12-15T00:33:17.999Z,18.77
2022-12-15T00:36:03.673Z,17.95
2022-12-15T00:38:43.196Z,19.23
2022-12-15T00:41:11.939Z,18.23
2022-12-15T00:43:40.117Z,20.00
2022-12-15T00:46:26.365Z,18.15
2022-12-15T00:48:54.685Z,20.05
2022-12-15T00:51:21.877Z,20.85
2022-12-15T00:54:11.899Z,19.75
2022-12-15T00:57:00.046Z,18.58
2022-12-15T00:59:46.549Z,20.20
2022-12-15T01:05:17.255Z,17.30
2022-12-15T01:08:02.489Z,18.17
2022-12-15T01:10:49.421Z,18.77
2022-12-15T01:13:34.950Z,20.55
2022-12-15T01:16:20.529Z,18.80
2022-12-15T01:19:05.801Z,19.80
2022-12-15T01:21:34.070Z,19.33
2022-12-15T01:24:02.179Z,18.02
2022-12-15T01:26:31.516Z,19.30
2022-12-15T01:28:59.728Z,19.77
2022-12-15T01:31:27.749Z,18.63
2022-12-15T01:33:55.952Z,19.55
2022-12-15T01:36:23.983Z,18.38
2022-12-15T01:38:54.254Z,19.38
2022-12-15T01:41:21.819Z,20.08
2022-12-15T01:43:51.335Z,19.15
2022-12-15T01:46:23.792Z,19.58
2022-12-15T01:48:58.662Z,20.17
2022-12-15T01:51:33.212Z,19.17
2022-12-15T01:54:06.498Z,19.00
2022-12-15T01:56:38.313Z,19.08
2022-12-15T01:59:10.348Z,18.20
2022-12-15T02:01:38.923Z,19.27
2022-12-15T02:04:07.116Z,19.42
2022-12-15T02:06:35.919Z,19.23
2022-12-15T02:09:04.724Z,18.95
2022-12-15T02:12:05.555Z,18.33
2022-12-15T02:14:56.763Z,18.98
2022-12-15T02:17:34.814Z,18.02
2022-12-15T02:20:38.435Z,20.45
2022-12-15T02:23:54.049Z,18.33
2022-12-15T02:27:04.486Z,17.70
2022-12-15T02:30:19.916Z,18.75
2022-12-15T02:33:02.590Z,18.25
2022-12-15T02:35:38.439Z,18.38
2022-12-15T02:38:06.550Z,16.92
2022-12-15T02:40:34.586Z,16.95
2022-12-15T02:43:06.469Z,18.17
2022-12-15T02:45:42.181Z,18.02
2022-12-15T02:48:24.913Z,18.00
2022-12-15T02:51:08.592Z,18.80
2022-12-15T02:53:52.809Z,18.38
2022-12-15T02:56:27.899Z,18.15
2022-12-15T02:59:03.944Z,18.60
2022-12-15T03:04:07.012Z,17.13
2022-12-15T03:06:35.196Z,17.52
2022-12-15T03:09:03.501Z,19.20
2022-12-15T03:11:32.319Z,18.77
2022-12-15T03:14:00.423Z,19.58
2022-12-15T03:16:28.636Z,20.27
2022-12-15T03:18:56.793Z,18.40
2022-12-15T03:21:26.330Z,19.10
2022-12-15T03:23:54.543Z,20.15
2022-12-15T03:26:22.966Z,19.52
2022-12-15T03:28:51.247Z,19.92
2022-12-15T03:31:19.483Z,19.92
2022-12-15T03:33:47.681Z,18.73
2022-12-15T03:36:17.032Z,19.75
2022-12-15T03:38:47.233Z,20.02
2022-12-15T03:41:15.518Z,19.65
2022-12-15T03:43:43.730Z,20.23
2022-12-15T03:46:12.156Z,19.70
2022-12-15T03:48:46.533Z,19.38
2022-12-15T03:51:15.281Z,17.35
2022-12-15T03:53:43.476Z,17.05
2022-12-15T03:56:13.525Z,19.42
2022-12-15T03:58:41.915Z,22.90
2022-12-15T04:01:14.316Z,23.70
2022-12-15T04:03:42.394Z,23.80
2022-12-15T04:06:10.447Z,24.50
2022-12-15T04:08:38.615Z,24.48
2022-12-15T04:11:06.812Z,28.90
2022-12-15T04:13:36.331Z,26.23
2022-12-15T04:16:04.979Z,24.60
2022-12-15T04:18:33.183Z,27.60
2022-12-15T04:21:00.156Z,24.02
2022-12-15T04:23:28.534Z,23.65
2022-12-15T04:26:13.865Z,21.45
2022-12-15T04:29:01.048Z,22.90
2022-12-15T04:31:48.963Z,21.70
2022-12-15T04:34:37.194Z,22.58
2022-12-15T04:37:24.977Z,18.60
2022-12-15T04:40:12.300Z,20.10
2022-12-15T04:43:01.137Z,21.30
2022-12-15T04:45:48.055Z,21.25
2022-12-15T04:48:33.959Z,21.02
2022-12-15T04:51:19.718Z,18.55
2022-12-15T04:54:05.643Z,22.38
2022-12-15T04:56:51.260Z,19.83
2022-12-15T04:59:36.986Z,19.33
2022-12-15T05:02:23.773Z,21.55
2022-12-15T05:05:09.239Z,17.42
2022-12-15T05:07:54.451Z,19.85
2022-12-15T05:10:40.039Z,21.02
2022-12-15T05:13:26.759Z,21.17
2022-12-15T05:16:12.367Z,20.65
2022-12-15T05:18:59.296Z,22.15
2022-12-15T05:21:44.584Z,22.00
2022-12-15T05:24:30.882Z,30.95
2022-12-15T05:27:16.159Z,48.83
2022-12-15T05:30:01.550Z,36.20
2022-12-15T05:32:32.496Z,35.22
2022-12-15T05:35:02.438Z,39.90
2022-12-15T05:37:30.526Z,36.67
2022-12-15T05:39:58.577Z,35.78
2022-12-15T05:42:26.649Z,51.75
2022-12-15T05:44:56.647Z,33.47
2022-12-15T05:47:24.639Z,25.45
2022-12-15T05:49:52.738Z,24.42
2022-12-15T05:52:22.151Z,24.80
2022-12-15T05:54:50.283Z,24.05
2022-12-15T05:57:18.397Z,23.15
2022-12-15T05:59:46.486Z,22.10
2022-12-15T06:02:14.499Z,20.80
2022-12-15T06:04:42.819Z,21.27
2022-12-15T06:07:10.818Z,21.38
2022-12-15T06:09:40.652Z,21.73
2022-12-15T06:12:08.814Z,21.17
2022-12-15T06:14:37.527Z,20.05
2022-12-15T06:17:07.676Z,21.88
2022-12-15T06:19:35.851Z,20.35
2022-12-15T06:22:03.884Z,21.67
2022-12-15T06:24:31.915Z,20.30
2022-12-15T06:27:02.004Z,19.13
2022-12-15T06:29:30.152Z,20.50
2022-12-15T06:31:58.401Z,20.17
2022-12-15T06:34:27.209Z,20.13
2022-12-15T06:36:55.333Z,20.35
2022-12-15T06:39:23.566Z,20.90
2022-12-15T06:41:51.571Z,21.02
2022-12-15T06:44:21.383Z,21.95
2022-12-15T06:46:49.561Z,25.95
2022-12-15T06:49:17.657Z,24.67
2022-12-15T06:51:45.722Z,28.60
2022-12-15T06:54:13.973Z,25.60
2022-12-15T06:56:42.516Z,24.08
2022-12-15T06:59:12.185Z,20.95
2022-12-15T07:01:43.045Z,20.63
2022-12-15T07:04:11.643Z,19.30
2022-12-15T07:06:41.138Z,19.80
2022-12-15T07:09:14.699Z,21.05
2022-12-15T07:11:42.836Z,20.67
2022-12-15T07:14:11.514Z,20.30
2022-12-15T07:16:39.654Z,19.80
2022-12-15T07:19:12.627Z,20.40
2022-12-15T07:21:41.211Z,20.10
2022-12-15T07:24:11.419Z,20.50
2022-12-15T07:26:39.544Z,20.73
2022-12-15T07:29:07.688Z,20.77
2022-12-15T07:31:35.845Z,21.13
2022-12-15T07:34:04.976Z,21.00
2022-12-15T07:36:34.962Z,22.58
2022-12-15T07:39:03.970Z,22.92
2022-12-15T07:41:32.132Z,23.38
2022-12-15T07:44:00.395Z,22.17
2022-12-15T07:46:29.285Z,24.85
2022-12-15T07:48:57.346Z,23.55
2022-12-15T07:51:25.469Z,23.35
2022-12-15T07:53:55.042Z,24.42
2022-12-15T07:56:23.294Z,22.63
2022-12-15T07:58:53.158Z,22.27
2022-12-15T08:01:21.399Z,24.42
2022-12-15T08:03:50.270Z,23.55
2022-12-15T08:06:18.664Z,22.13
2022-12-15T08:08:49.998Z,24.25
2022-12-15T08:11:22.071Z,24.58
2022-12-15T08:14:10.624Z,22.98
2022-12-15T08:16:39.608Z,22.38
2022-12-15T08:19:11.761Z,23.23
2022-12-15T08:21:41.469Z,24.80
2022-12-15T08:24:10.733Z,22.95
2022-12-15T08:26:41.597Z,23.50
2022-12-15T08:32:01.105Z,25.15
2022-12-15T08:34:29.396Z,24.85
2022-12-15T08:36:57.730Z,24.88
2022-12-15T08:39:26.000Z,23.38
2022-12-15T08:41:55.381Z,27.42
2022-12-15T08:44:23.764Z,25.60
2022-12-15T08:46:52.456Z,24.98
2022-12-15T08:49:22.270Z,26.38
2022-12-15T08:51:51.919Z,25.92
2022-12-15T08:54:21.588Z,25.25
2022-12-15T08:56:50.339Z,23.45
2022-12-15T08:59:20.354Z,25.08
2022-12-15T09:01:48.731Z,23.08
2022-12-15T09:04:17.163Z,25.80
2022-12-15T09:06:50.815Z,24.98
2022-12-15T09:09:19.248Z,27.38
2022-12-15T09:11:47.384Z,24.05
2022-12-15T09:14:15.924Z,25.38
2022-12-15T09:16:45.563Z,26.30
2022-12-15T09:19:13.711Z,27.33
2022-12-15T09:21:44.995Z,26.80
2022-12-15T09:24:23.244Z,27.20
2022-12-15T09:26:54.312Z,26.55
2022-12-15T09:29:22.250Z,25.70
2022-12-15T09:31:51.606Z,27.20
2022-12-15T09:34:19.741Z,27.05
2022-12-15T09:36:47.822Z,27.45
2022-12-15T09:39:17.040Z,28.17
2022-12-15T09:41:55.096Z,28.60
2022-12-15T09:44:25.090Z,27.90
2022-12-15T09:47:06.163Z,27.90
2022-12-15T09:49:46.983Z,27.33
2022-12-15T09:52:19.325Z,25.80
2022-12-15T09:54:47.597Z,28.83
2022-12-15T09:57:25.001Z,27.63
2022-12-15T10:00:05.261Z,28.20
2022-12-15T10:03:16.733Z,28.42
2022-12-15T10:06:14.808Z,27.23
2022-12-15T10:08:47.065Z,28.10
2022-12-15T10:11:41.622Z,29.52
2022-12-15T10:14:20.383Z,26.58
2022-12-15T10:16:58.618Z,28.92
2022-12-15T10:19:35.904Z,28.45
2022-12-15T10:22:04.055Z,28.17
2022-12-15T10:27:37.677Z,26.65
2022-12-15T10:30:10.089Z,29.77
2022-12-15T10:32:51.797Z,26.13
2022-12-15T10:35:24.596Z,29.05
2022-12-15T10:37:52.660Z,30.02
2022-12-15T10:40:42.260Z,27.98
2022-12-15T10:43:15.692Z,27.38
2022-12-15T10:45:43.940Z,29.27
2022-12-15T10:48:20.822Z,28.80
2022-12-15T10:50:50.396Z,27.50
2022-12-15T10:53:39.496Z,26.95
2022-12-15T10:56:11.354Z,26.27
2022-12-15T10:58:50.237Z,29.25
2022-12-15T11:01:21.374Z,29.48
2022-12-15T11:03:53.004Z,25.23
2022-12-15T11:06:24.890Z,27.23
2022-12-15T11:08:56.788Z,28.30
2022-12-15T11:11:48.429Z,28.30
2022-12-15T11:14:20.815Z,27.65
2022-12-15T11:16:54.547Z,27.58
2022-12-15T11:19:34.893Z,27.77
2022-12-15T11:22:10.324Z,28.48
2022-12-15T11:24:45.430Z,23.92
2022-12-15T11:27:23.110Z,27.97
2022-12-15T11:30:01.176Z,28.70
2022-12-15T11:32:33.744Z,27.88
2022-12-15T11:35:02.311Z,29.33
2022-12-15T11:37:45.523Z,28.30
2022-12-15T11:40:40.926Z,27.48
2022-12-15T11:43:41.367Z,28.88
2022-12-15T11:46:23.302Z,28.50
2022-12-15T11:49:11.142Z,28.23
2022-12-15T11:51:44.305Z,28.75
2022-12-15T11:54:25.654Z,29.65
2022-12-15T11:57:00.823Z,28.80
2022-12-15T11:59:55.948Z,28.55
2022-12-15T12:02:48.106Z,27.10
2022-12-15T12:05:43.429Z,30.42
2022-12-15T12:08:24.054Z,28.73
2022-12-15T12:11:01.199Z,30.33
2022-12-15T12:13:37.537Z,30.77
2022-12-15T12:16:17.594Z,31.33
2022-12-15T12:18:53.282Z,31.10
2022-12-15T12:21:28.080Z,30.67
2022-12-15T12:24:01.154Z,31.25
2022-12-15T12:26:48.560Z,32.47
2022-12-15T12:29:22.487Z,32.97
2022-12-15T12:32:04.554Z,33.80
2022-12-15T12:34:45.417Z,32.97
2022-12-15T12:37:23.077Z,31.27
2022-12-15T12:39:54.073Z,31.60
2022-12-15T12:42:30.375Z,33.22
2022-12-15T12:44:58.736Z,31.67
2022-12-15T12:47:31.221Z,32.00
2022-12-15T12:50:04.113Z,32.92
2022-12-15T12:52:34.680Z,34.20
2022-12-15T12:55:09.572Z,32.17
2022-12-15T12:57:43.506Z,30.60
2022-12-15T13:00:20.764Z,33.13
2022-12-15T13:03:17.367Z,33.33
2022-12-15T13:05:48.823Z,32.40
2022-12-15T13:08:51.649Z,31.27
2022-12-15T13:12:03.197Z,32.30
2022-12-15T13:14:46.634Z,31.15
2022-12-15T13:17:27.655Z,32.42
2022-12-15T13:20:23.666Z,33.03
2022-12-15T13:22:53.887Z,30.85
2022-12-15T13:25:48.528Z,31.30
2022-12-15T13:28:42.886Z,31.20
2022-12-15T13:31:33.565Z,34.05
2022-12-15T13:34:15.336Z,32.53
2022-12-15T13:36:59.851Z,32.45
2022-12-15T13:39:58.733Z,32.85
2022-12-15T13:45:54.807Z,29.42
2022-12-15T13:48:36.179Z,32.13
2022-12-15T13:51:31.456Z,32.60
2022-12-15T13:54:04.301Z,33.30
2022-12-15T13:56:46.050Z,32.67
2022-12-15T13:59:21.475Z,32.15
2022-12-15T14:01:51.532Z,32.80
2022-12-15T14:04:22.725Z,33.70
2022-12-15T14:06:53.819Z,34.13
2022-12-15T14:09:25.407Z,34.90
2022-12-15T14:11:54.429Z,33.70
2022-12-15T14:14:27.810Z,34.25
2022-12-15T14:17:04.338Z,34.75
2022-12-15T14:19:41.873Z,31.45
2022-12-15T14:22:28.613Z,33.20
2022-12-15T14:25:02.511Z,34.13
2022-12-15T14:27:33.710Z,34.03
2022-12-15T14:30:22.453Z,32.90
2022-12-15T14:32:55.728Z,32.15
2022-12-15T14:35:31.932Z,34.28
2022-12-15T14:38:03.040Z,35.25
2022-12-15T14:40:31.965Z,34.33
2022-12-15T14:43:00.343Z,37.15
2022-12-15T14:45:32.119Z,33.88
2022-12-15T14:50:52.412Z,35.00
2022-12-15T14:53:22.230Z,36.42
2022-12-15T14:58:41.911Z,34.53
2022-12-15T15:01:25.684Z,37.85
2022-12-15T15:03:12.253Z,37.15
2022-12-15T15:04:01.659Z,37.33
2022-12-15T15:09:18.021Z,35.25
2022-12-15T15:11:46.475Z,36.65
2022-12-15T15:14:18.122Z,35.72
2022-12-15T15:16:46.659Z,37.47
2022-12-15T15:19:23.957Z,36.75
2022-12-15T15:21:53.430Z,35.08
2022-12-15T15:24:30.480Z,34.50
2022-12-15T15:27:24.609Z,34.53
2022-12-15T15:29:53.261Z,35.58
2022-12-15T15:32:22.721Z,36.85
2022-12-15T15:34:51.421Z,36.22
2022-12-15T15:37:23.827Z,35.80
2022-12-15T15:39:53.483Z,35.90
2022-12-15T15:42:21.796Z,35.28
2022-12-15T15:44:50.122Z,37.58
2022-12-15T15:47:25.577Z,35.28
2022-12-15T15:49:58.737Z,35.70
2022-12-15T15:52:32.165Z,33.88
2022-12-15T15:55:00.737Z,33.95
2022-12-15T15:57:29.707Z,36.55
2022-12-15T15:59:59.793Z,35.70
2022-12-15T16:02:28.074Z,36.95
2022-12-15T16:04:57.155Z,37.42
2022-12-15T16:07:27.094Z,35.13
2022-12-15T16:09:57.059Z,35.13
2022-12-15T16:12:29.268Z,36.03
2022-12-15T16:14:58.066Z,36.25
2022-12-15T16:17:26.314Z,37.92
2022-12-15T16:19:56.231Z,34.10
2022-12-15T16:22:24.546Z,32.90
2022-12-15T16:24:53.690Z,34.42
2022-12-15T16:27:24.219Z,34.75
2022-12-15T16:29:53.807Z,37.08
2022-12-15T16:32:22.132Z,35.53
2022-12-15T16:34:53.016Z,36.03
2022-12-15T16:37:27.611Z,32.67
2022-12-15T16:40:00.026Z,34.42
2022-12-15T16:42:30.935Z,34.70
2022-12-15T16:45:00.012Z,35.67
2022-12-15T16:47:31.600Z,37.40
2022-12-15T16:50:02.990Z,35.83
2022-12-15T16:52:31.698Z,36.97
2022-12-15T16:55:02.178Z,35.45
2022-12-15T16:57:32.800Z,35.47
2022-12-15T17:00:05.383Z,33.63
2022-12-15T17:02:34.204Z,33.45
2022-12-15T17:05:03.507Z,34.05
2022-12-15T17:07:31.844Z,32.42
2022-12-15T17:10:00.286Z,33.55
2022-12-15T17:12:28.483Z,32.30
2022-12-15T17:15:02.834Z,31.58
2022-12-15T17:17:32.464Z,33.33
2022-12-15T17:22:53.668Z,32.28
2022-12-15T17:25:46.129Z,27.85
2022-12-15T17:28:18.098Z,27.23
2022-12-15T17:30:50.377Z,27.20
2022-12-15T17:33:20.594Z,27.25
2022-12-15T17:35:53.884Z,28.50
2022-12-15T17:38:23.460Z,29.10
2022-12-15T17:40:53.003Z,28.77
2022-12-15T17:43:23.190Z,28.60
2022-12-15T17:45:55.627Z,27.25
2022-12-15T17:48:24.235Z,27.42
2022-12-15T17:50:54.863Z,27.42
2022-12-15T17:53:25.706Z,27.27
2022-12-15T17:55:55.105Z,26.35
2022-12-15T17:58:26.108Z,25.63
2022-12-15T18:00:57.369Z,27.50
2022-12-15T18:03:25.791Z,26.45
2022-12-15T18:05:54.958Z,28.20
2022-12-15T18:08:25.059Z,27.50
2022-12-15T18:10:54.544Z,25.60
2022-12-15T18:13:26.112Z,21.05
2022-12-15T18:15:57.590Z,21.33
2022-12-15T18:18:26.712Z,19.50
2022-12-15T18:21:00.415Z,17.92
2022-12-15T18:23:31.676Z,19.35
2022-12-15T18:26:03.417Z,23.73
2022-12-15T18:28:33.529Z,20.52
2022-12-15T18:31:06.128Z,19.88
2022-12-15T18:33:34.841Z,19.27
2022-12-15T18:36:02.936Z,20.35
2022-12-15T18:38:31.155Z,19.25
2022-12-15T18:41:01.467Z,21.40
2022-12-15T18:43:31.719Z,21.17
2022-12-15T18:46:00.552Z,22.70
2022-12-15T18:48:31.869Z,20.23
2022-12-15T18:51:03.456Z,18.02
2022-12-15T18:53:35.608Z,18.05
2022-12-15T18:56:06.969Z,18.05
2022-12-15T18:58:39.578Z,19.67
2022-12-15T19:01:09.054Z,18.13
2022-12-15T19:03:42.468Z,17.13
2022-12-15T19:06:25.767Z,17.67
2022-12-15T19:08:54.345Z,18.95
2022-12-15T19:11:31.235Z,19.00
2022-12-15T19:14:00.478Z,18.85
2022-12-15T19:16:51.949Z,15.20
2022-12-15T19:19:39.858Z,14.70
2022-12-15T19:22:30.121Z,12.90
2022-12-15T19:24:59.228Z,12.40
2022-12-15T19:27:31.359Z,13.18
2022-12-15T19:29:59.534Z,14.07
2022-12-15T19:32:27.862Z,13.57
2022-12-15T19:34:57.278Z,12.27
2022-12-15T19:37:28.475Z,12.90
2022-12-15T19:39:58.826Z,11.88
2022-12-15T19:42:31.566Z,12.13
2022-12-15T19:45:00.837Z,11.98
2022-12-15T19:47:29.696Z,10.98
2022-12-15T19:49:59.519Z,10.48
2022-12-15T19:52:28.291Z,10.05
2022-12-15T19:54:57.489Z,9.05
2022-12-15T19:57:26.599Z,8.45
2022-12-15T19:59:54.849Z,9.77
2022-12-15T20:02:23.483Z,9.68
2022-12-15T20:04:51.658Z,9.95
2022-12-15T20:07:30.960Z,10.55
2022-12-15T20:10:00.210Z,10.15
2022-12-15T20:12:28.590Z,11.57
2022-12-15T20:14:56.651Z,10.60
2022-12-15T20:17:24.817Z,11.27
2022-12-15T20:19:53.821Z,10.65
2022-12-15T20:22:23.767Z,11.60
2022-12-15T20:24:51.863Z,11.68
2022-12-15T20:27:20.808Z,11.63
2022-12-15T20:29:48.885Z,12.48
2022-12-15T20:32:19.476Z,11.77
2022-12-15T20:34:48.567Z,12.48
2022-12-15T20:37:20.277Z,12.40
2022-12-15T20:39:55.522Z,11.98
2022-12-15T20:42:25.779Z,12.35
2022-12-15T20:44:54.260Z,12.95
2022-12-15T20:47:24.812Z,13.40
2022-12-15T20:49:53.906Z,12.98
2022-12-15T20:52:23.800Z,12.98
2022-12-15T20:54:54.633Z,13.38
2022-12-15T20:57:22.792Z,13.40
2022-12-15T20:59:51.140Z,13.15
2022-12-15T21:02:21.491Z,12.70
2022-12-15T21:04:52.159Z,13.93
2022-12-15T21:07:20.225Z,12.63
2022-12-15T21:09:48.312Z,12.85
2022-12-15T21:12:21.146Z,13.32
2022-12-15T21:14:49.639Z,13.43
2022-12-15T21:17:19.969Z,13.48
2022-12-15T21:19:48.964Z,12.93
2022-12-15T21:22:20.583Z,14.07
2022-12-15T21:24:50.702Z,15.20
2022-12-15T21:27:20.710Z,14.82
2022-12-15T21:29:52.686Z,15.43
2022-12-15T21:32:21.409Z,14.02
2022-12-15T21:34:49.925Z,13.88
2022-12-15T21:37:29.787Z,14.50
2022-12-15T21:39:59.442Z,14.38
2022-12-15T21:42:28.956Z,14.52
2022-12-15T21:44:57.011Z,15.55
2022-12-15T21:47:46.991Z,12.88
2022-12-15T21:50:14.317Z,14.07
2022-12-15T21:52:43.101Z,13.73
2022-12-15T21:55:16.128Z,13.27
2022-12-15T21:57:46.429Z,14.43
2022-12-15T22:00:17.366Z,13.23
2022-12-15T22:02:46.372Z,13.35
2022-12-15T22:05:17.799Z,14.05
2022-12-15T22:07:46.130Z,14.60
2022-12-15T22:10:14.539Z,13.65
2022-12-15T22:12:51.442Z,13.98
2022-12-15T22:15:23.215Z,13.18
2022-12-15T22:17:51.892Z,13.27
2022-12-15T22:20:22.684Z,13.65
2022-12-15T22:22:51.595Z,13.30
2022-12-15T22:25:22.099Z,12.18
2022-12-15T22:27:52.583Z,12.88
2022-12-15T22:30:26.669Z,14.38
2022-12-15T22:32:54.797Z,13.57
2022-12-15T22:35:24.783Z,13.25
2022-12-15T22:37:55.192Z,14.10
2022-12-15T22:40:24.577Z,13.18
2022-12-15T22:42:58.153Z,13.85
2022-12-15T22:45:26.362Z,13.63
2022-12-15T22:47:54.938Z,13.13
2022-12-15T22:50:25.967Z,14.13
2022-12-15T22:52:55.256Z,12.45
2022-12-15T22:55:24.419Z,13.32
2022-12-15T22:57:57.862Z,13.80
2022-12-15T23:00:26.205Z,12.57
2022-12-15T23:02:54.542Z,12.52
2022-12-15T23:05:23.246Z,12.70
2022-12-15T23:07:51.651Z,13.52
2022-12-15T23:10:38.774Z,13.60
2022-12-15T23:13:08.514Z,13.85
2022-12-15T23:15:54.719Z,13.95
2022-12-15T23:20:53.500Z,11.82
2022-12-15T23:23:22.716Z,12.52
2022-12-15T23:25:50.729Z,12.73
2022-12-15T23:28:20.236Z,12.02
2022-12-15T23:30:50.179Z,12.20
2022-12-15T23:33:18.264Z,13.70
2022-12-15T23:35:46.899Z,14.00
2022-12-15T23:38:15.800Z,12.32
2022-12-15T23:40:51.184Z,13.32
2022-12-15T23:43:23.028Z,13.63
2022-12-15T23:45:58.281Z,14.00
2022-12-15T23:48:29.990Z,14.00
2022-12-15T23:51:04.752Z,12.77
2022-12-15T23:53:33.456Z,11.35
2022-12-15T23:56:08.113Z,11.77
2022-12-15T23:58:37.752Z,10.57
